createdAt,value
2018-07-16T00:01:49.813Z,22.92
2018-07-16T00:04:16.473Z,22.93
2018-07-16T00:06:44.345Z,22.93
2018-07-16T00:09:11.001Z,22.93
2018-07-16T00:11:37.658Z,22.86
2018-07-16T00:14:04.332Z,22.91
2018-07-16T00:16:30.965Z,22.91
2018-07-16T00:18:57.737Z,22.88
2018-07-16T00:21:24.376Z,22.92
2018-07-16T00:23:51.049Z,22.87
2018-07-16T00:26:17.684Z,22.87
2018-07-16T00:28:45.416Z,22.89
2018-07-16T00:31:12.070Z,22.88
2018-07-16T00:33:38.753Z,22.89
2018-07-16T00:36:06.019Z,22.83
2018-07-16T00:38:32.689Z,22.82
2018-07-16T00:40:59.337Z,22.84
2018-07-16T00:43:26.001Z,22.82
2018-07-16T00:45:52.656Z,22.80
2018-07-16T00:48:19.317Z,22.81
2018-07-16T00:50:45.988Z,22.82
2018-07-16T00:53:12.638Z,22.81
2018-07-16T00:55:39.322Z,22.79
2018-07-16T00:58:06.655Z,22.74
2018-07-16T01:00:33.299Z,22.72
2018-07-16T01:02:59.936Z,22.69
2018-07-16T01:05:26.589Z,22.71
2018-07-16T01:07:53.238Z,22.67
2018-07-16T01:10:19.906Z,22.62
2018-07-16T01:12:46.557Z,22.60
2018-07-16T01:15:13.685Z,22.63
2018-07-16T01:17:40.493Z,22.71
2018-07-16T01:20:07.123Z,22.65
2018-07-16T01:22:33.786Z,22.58
2018-07-16T01:25:00.474Z,22.65
2018-07-16T01:27:27.125Z,22.57
2018-07-16T01:29:53.752Z,22.63
2018-07-16T01:32:20.388Z,22.64
2018-07-16T01:34:47.024Z,22.63
2018-07-16T01:37:15.155Z,22.57
2018-07-16T01:39:41.797Z,22.56
2018-07-16T01:42:09.241Z,22.54
2018-07-16T01:44:37.607Z,22.52
2018-07-16T01:47:05.191Z,22.53
2018-07-16T01:49:32.761Z,22.52
2018-07-16T01:51:59.428Z,22.53
2018-07-16T01:54:26.089Z,22.47
2018-07-16T01:56:52.775Z,22.50
2018-07-16T01:59:19.416Z,22.53
2018-07-16T02:01:46.081Z,22.59
2018-07-16T02:04:12.717Z,22.62
2018-07-16T02:06:39.364Z,22.65
2018-07-16T02:09:06.678Z,22.61
2018-07-16T02:11:33.326Z,22.61
2018-07-16T02:13:59.969Z,22.63
2018-07-16T02:16:26.632Z,22.51
2018-07-16T02:18:53.268Z,22.48
2018-07-16T02:21:19.932Z,22.55
2018-07-16T02:23:47.322Z,22.61
2018-07-16T02:26:16.759Z,22.56
2018-07-16T02:28:43.405Z,22.55
2018-07-16T02:31:10.062Z,22.58
2018-07-16T02:33:37.216Z,22.62
2018-07-16T02:36:03.857Z,22.55
2018-07-16T02:38:30.510Z,22.52
2018-07-16T02:40:57.161Z,22.49
2018-07-16T02:43:23.814Z,22.53
2018-07-16T02:45:50.473Z,22.52
2018-07-16T02:48:17.112Z,22.56
2018-07-16T02:50:43.748Z,22.51
2018-07-16T02:53:10.411Z,22.52
2018-07-16T02:55:38.530Z,22.51
2018-07-16T02:58:07.123Z,22.48
2018-07-16T03:00:34.749Z,22.43
2018-07-16T03:03:02.337Z,22.51
2018-07-16T03:05:29.937Z,22.49
2018-07-16T03:07:56.600Z,22.46
2018-07-16T03:10:23.221Z,22.46
2018-07-16T03:12:49.866Z,22.47
2018-07-16T03:15:17.449Z,22.52
2018-07-16T03:17:44.098Z,22.53
2018-07-16T03:20:10.797Z,22.50
2018-07-16T03:22:37.429Z,22.47
2018-07-16T03:25:04.477Z,22.43
2018-07-16T03:27:31.135Z,22.47
2018-07-16T03:29:58.731Z,22.47
2018-07-16T03:32:25.516Z,22.46
2018-07-16T03:34:52.180Z,22.40
2018-07-16T03:37:19.817Z,22.42
2018-07-16T03:39:47.684Z,22.41
2018-07-16T03:42:14.333Z,22.45
2018-07-16T03:44:41.005Z,22.42
2018-07-16T03:47:07.653Z,22.42
2018-07-16T03:49:35.265Z,22.42
2018-07-16T03:52:01.921Z,22.43
2018-07-16T03:54:28.640Z,22.46
2018-07-16T03:56:55.597Z,22.43
2018-07-16T03:59:23.070Z,22.46
2018-07-16T04:01:49.716Z,22.40
2018-07-16T04:04:17.116Z,22.41
2018-07-16T04:06:43.789Z,22.44
2018-07-16T04:09:10.441Z,22.42
2018-07-16T04:11:38.372Z,22.41
2018-07-16T04:14:05.033Z,22.38
2018-07-16T04:16:31.668Z,22.42
2018-07-16T04:18:58.310Z,22.44
2018-07-16T04:21:24.964Z,22.48
2018-07-16T04:23:51.696Z,22.50
2018-07-16T04:26:18.348Z,22.46
2018-07-16T04:28:47.032Z,22.46
2018-07-16T04:31:13.694Z,22.45
2018-07-16T04:33:40.354Z,22.53
2018-07-16T04:36:07.947Z,22.55
2018-07-16T04:38:34.586Z,22.55
2018-07-16T04:41:01.238Z,22.50
2018-07-16T04:43:27.880Z,22.54
2018-07-16T04:45:55.376Z,22.56
2018-07-16T04:48:22.876Z,22.54
2018-07-16T04:50:49.527Z,22.53
2018-07-16T04:53:17.001Z,22.60
2018-07-16T04:55:44.788Z,22.53
2018-07-16T04:58:12.385Z,22.57
2018-07-16T05:00:40.076Z,22.54
2018-07-16T05:03:07.655Z,22.60
2018-07-16T05:05:35.118Z,22.61
2018-07-16T05:08:02.556Z,22.62
2018-07-16T05:10:29.216Z,22.57
2018-07-16T05:12:55.860Z,22.63
2018-07-16T05:15:22.517Z,22.69
2018-07-16T05:17:49.184Z,22.69
2018-07-16T05:20:17.656Z,22.69
2018-07-16T05:22:44.460Z,22.66
2018-07-16T05:25:12.165Z,22.74
2018-07-16T05:27:39.781Z,22.68
2018-07-16T05:30:06.461Z,22.73
2018-07-16T05:32:34.081Z,22.76
2018-07-16T05:35:00.648Z,22.79
2018-07-16T05:37:28.216Z,22.83
2018-07-16T05:39:54.837Z,22.78
2018-07-16T05:42:22.388Z,22.79
2018-07-16T05:44:50.073Z,22.82
2018-07-16T05:47:18.736Z,22.78
2018-07-16T05:49:47.644Z,22.74
2018-07-16T05:52:14.272Z,22.76
2018-07-16T05:54:40.905Z,22.84
2018-07-16T05:57:08.425Z,22.79
2018-07-16T05:59:35.065Z,22.76
2018-07-16T06:02:02.684Z,22.75
2018-07-16T06:04:30.229Z,22.82
2018-07-16T06:06:57.665Z,22.85
2018-07-16T06:09:24.287Z,22.84
2018-07-16T06:11:51.771Z,22.86
2018-07-16T06:14:18.420Z,22.89
2018-07-16T06:16:46.732Z,22.97
2018-07-16T06:19:13.376Z,23.12
2018-07-16T06:21:40.844Z,23.18
2018-07-16T06:24:08.413Z,23.26
2018-07-16T06:26:35.076Z,23.31
2018-07-16T06:29:02.512Z,23.33
2018-07-16T06:31:29.162Z,23.38
2018-07-16T06:33:56.800Z,23.41
2018-07-16T06:36:23.444Z,23.40
2018-07-16T06:38:51.080Z,23.41
2018-07-16T06:41:18.917Z,23.43
2018-07-16T06:43:46.386Z,23.40
2018-07-16T06:46:14.755Z,23.38
2018-07-16T06:48:42.356Z,23.39
2018-07-16T06:51:09.932Z,23.37
2018-07-16T06:53:37.577Z,23.38
2018-07-16T06:56:05.000Z,23.35
2018-07-16T06:58:31.625Z,23.33
2018-07-16T07:00:58.242Z,23.31
2018-07-16T07:03:24.857Z,23.33
2018-07-16T07:05:51.471Z,23.34
2018-07-16T07:08:18.082Z,23.35
2018-07-16T07:10:44.707Z,23.33
2018-07-16T07:13:11.321Z,23.36
2018-07-16T07:15:37.953Z,23.34
2018-07-16T07:18:04.658Z,23.35
2018-07-16T07:20:31.268Z,23.37
2018-07-16T07:22:57.917Z,23.32
2018-07-16T07:25:24.588Z,23.31
2018-07-16T07:27:51.203Z,23.31
2018-07-16T07:30:17.826Z,23.30
2018-07-16T07:32:44.522Z,23.31
2018-07-16T07:35:11.255Z,23.28
2018-07-16T07:37:37.865Z,23.33
2018-07-16T07:40:04.580Z,23.28
2018-07-16T07:42:31.477Z,23.31
2018-07-16T07:44:58.184Z,23.31
2018-07-16T07:47:24.868Z,23.29
2018-07-16T07:49:51.605Z,23.30
2018-07-16T07:52:18.361Z,23.30
2018-07-16T07:54:46.704Z,23.23
2018-07-16T07:57:13.186Z,23.27
2018-07-16T07:59:39.844Z,23.26
2018-07-16T08:02:06.553Z,23.26
2018-07-16T08:04:33.220Z,23.26
2018-07-16T08:07:05.631Z,23.26
2018-07-16T08:09:32.892Z,23.20
2018-07-16T08:11:59.749Z,23.19
2018-07-16T08:14:26.410Z,23.18
2018-07-16T08:16:53.049Z,23.23
2018-07-16T08:19:19.674Z,23.20
2018-07-16T08:21:46.780Z,23.26
2018-07-16T08:24:13.404Z,23.22
2018-07-16T08:26:40.073Z,23.19
2018-07-16T08:29:07.388Z,23.26
2018-07-16T08:31:34.024Z,23.26
2018-07-16T08:34:00.651Z,23.23
2018-07-16T08:36:27.296Z,23.25
2018-07-16T08:38:53.933Z,23.23
2018-07-16T08:41:20.572Z,23.26
2018-07-16T08:43:47.208Z,23.24
2018-07-16T08:46:14.433Z,23.24
2018-07-16T08:48:41.068Z,23.22
2018-07-16T08:51:07.688Z,23.24
2018-07-16T08:53:34.315Z,23.24
2018-07-16T08:56:00.940Z,23.23
2018-07-16T08:58:27.561Z,23.25
2018-07-16T09:00:54.180Z,23.24
2018-07-16T09:03:20.801Z,23.25
2018-07-16T09:05:52.061Z,23.22
2018-07-16T09:08:18.684Z,23.25
2018-07-16T09:10:46.253Z,23.21
2018-07-16T09:13:13.720Z,23.25
2018-07-16T09:15:40.328Z,23.25
2018-07-16T09:18:07.764Z,23.23
2018-07-16T09:20:34.389Z,23.27
2018-07-16T09:23:01.924Z,23.26
2018-07-16T09:25:29.529Z,23.20
2018-07-16T09:27:57.155Z,23.18
2018-07-16T09:30:23.791Z,23.21
2018-07-16T09:32:51.378Z,23.20
2018-07-16T09:35:18.780Z,23.20
2018-07-16T09:37:46.858Z,23.22
2018-07-16T09:40:13.531Z,23.17
2018-07-16T09:42:40.160Z,23.17
2018-07-16T09:45:07.754Z,23.20
2018-07-16T09:47:34.372Z,23.16
2018-07-16T09:50:00.998Z,23.16
2018-07-16T09:52:27.669Z,23.20
2018-07-16T09:54:54.428Z,23.17
2018-07-16T09:57:21.048Z,23.15
2018-07-16T09:59:47.736Z,23.19
2018-07-16T10:02:16.449Z,23.21
2018-07-16T10:04:44.575Z,23.22
2018-07-16T10:07:11.316Z,23.21
2018-07-16T10:09:37.945Z,23.14
2018-07-16T10:12:04.569Z,23.22
2018-07-16T10:14:31.205Z,23.22
2018-07-16T10:16:57.828Z,23.16
2018-07-16T10:19:24.440Z,23.20
2018-07-16T10:21:51.075Z,23.18
2018-07-16T10:24:17.714Z,23.23
2018-07-16T10:26:46.403Z,23.22
2018-07-16T10:29:13.031Z,23.20
2018-07-16T10:31:40.853Z,23.20
2018-07-16T10:34:07.968Z,23.18
2018-07-16T10:36:34.590Z,23.15
2018-07-16T10:39:01.236Z,23.14
2018-07-16T10:41:27.852Z,23.11
2018-07-16T10:43:54.484Z,23.15
2018-07-16T10:46:21.125Z,23.17
2018-07-16T10:48:47.748Z,23.18
2018-07-16T10:51:14.373Z,23.18
2018-07-16T10:53:40.997Z,23.13
2018-07-16T10:56:07.621Z,23.15
2018-07-16T10:58:34.258Z,23.20
2018-07-16T11:01:00.967Z,23.13
2018-07-16T11:03:27.586Z,23.18
2018-07-16T11:06:00.820Z,23.19
2018-07-16T11:08:27.466Z,23.16
2018-07-16T11:10:54.113Z,23.17
2018-07-16T11:13:20.732Z,23.19
2018-07-16T11:15:47.388Z,23.21
2018-07-16T11:18:14.016Z,23.15
2018-07-16T11:20:40.669Z,23.16
2018-07-16T11:23:08.258Z,23.17
2018-07-16T11:25:34.911Z,23.17
2018-07-16T11:28:02.389Z,23.13
2018-07-16T11:30:29.989Z,23.16
2018-07-16T11:32:57.571Z,23.12
2018-07-16T11:35:24.313Z,23.11
2018-07-16T11:37:51.105Z,23.18
2018-07-16T11:40:17.916Z,23.16
2018-07-16T11:42:44.557Z,23.21
2018-07-16T11:45:11.371Z,23.18
2018-07-16T11:47:38.937Z,23.17
2018-07-16T11:50:05.608Z,23.15
2018-07-16T11:52:32.245Z,23.13
2018-07-16T11:54:58.896Z,23.10
2018-07-16T11:57:25.521Z,23.09
2018-07-16T11:59:53.713Z,23.11
2018-07-16T12:02:20.345Z,23.11
2018-07-16T12:04:46.979Z,23.10
2018-07-16T12:07:13.604Z,23.12
2018-07-16T12:09:40.236Z,23.13
2018-07-16T12:12:07.831Z,23.12
2018-07-16T12:14:34.469Z,23.10
2018-07-16T12:17:01.085Z,23.09
2018-07-16T12:19:27.815Z,23.08
2018-07-16T12:21:54.939Z,23.03
2018-07-16T12:24:21.565Z,23.06
2018-07-16T12:26:48.218Z,23.06
2018-07-16T12:29:16.952Z,23.05
2018-07-16T12:31:44.527Z,23.06
2018-07-16T12:34:11.175Z,22.99
2018-07-16T12:36:38.631Z,23.05
2018-07-16T12:39:06.466Z,23.08
2018-07-16T12:41:33.217Z,23.08
2018-07-16T12:43:59.780Z,23.07
2018-07-16T12:46:26.402Z,23.06
2018-07-16T12:48:53.030Z,23.06
2018-07-16T12:51:19.668Z,23.05
2018-07-16T12:53:47.472Z,23.04
2018-07-16T12:56:14.949Z,23.06
2018-07-16T12:58:41.593Z,23.09
2018-07-16T13:01:08.235Z,23.10
2018-07-16T13:03:34.870Z,23.08
2018-07-16T13:06:01.521Z,23.11
2018-07-16T13:08:28.185Z,23.10
2018-07-16T13:10:54.965Z,23.06
2018-07-16T13:13:21.605Z,23.07
2018-07-16T13:15:48.318Z,23.05
2018-07-16T13:18:14.926Z,23.07
2018-07-16T13:20:41.548Z,23.03
2018-07-16T13:23:08.192Z,23.04
2018-07-16T13:25:34.832Z,23.02
2018-07-16T13:28:01.772Z,23.01
2018-07-16T13:30:28.412Z,23.05
2018-07-16T13:32:55.056Z,23.05
2018-07-16T13:35:21.680Z,23.06
2018-07-16T13:37:48.309Z,23.06
2018-07-16T13:40:14.945Z,23.00
2018-07-16T13:42:41.853Z,23.03
2018-07-16T13:45:08.513Z,23.06
2018-07-16T13:47:35.158Z,23.05
2018-07-16T13:50:01.785Z,23.06
2018-07-16T13:52:28.424Z,23.00
2018-07-16T13:54:55.089Z,23.02
2018-07-16T13:57:22.814Z,23.03
2018-07-16T13:59:49.525Z,23.08
2018-07-16T14:02:17.280Z,23.01
2018-07-16T14:04:43.921Z,23.00
2018-07-16T14:07:10.545Z,23.07
2018-07-16T14:09:38.340Z,23.07
2018-07-16T14:12:05.089Z,23.04
2018-07-16T14:14:31.752Z,23.04
2018-07-16T14:16:58.405Z,22.98
2018-07-16T14:19:25.068Z,22.98
2018-07-16T14:21:51.721Z,23.06
2018-07-16T14:24:18.368Z,23.05
2018-07-16T14:26:45.067Z,23.00
2018-07-16T14:29:12.901Z,23.04
2018-07-16T14:31:40.585Z,22.99
2018-07-16T14:34:08.452Z,22.98
2018-07-16T14:36:35.500Z,22.99
2018-07-16T14:39:02.166Z,22.99
2018-07-16T14:41:29.768Z,23.03
2018-07-16T14:43:56.420Z,23.01
2018-07-16T14:46:23.064Z,23.00
2018-07-16T14:48:49.714Z,23.00
2018-07-16T14:51:17.420Z,22.97
2018-07-16T14:53:44.076Z,22.96
2018-07-16T14:56:11.565Z,22.95
2018-07-16T14:58:38.233Z,22.97
2018-07-16T15:01:06.562Z,22.96
2018-07-16T15:03:33.229Z,22.99
2018-07-16T15:06:00.818Z,22.97
2018-07-16T15:08:28.471Z,22.93
2018-07-16T15:10:55.096Z,22.99
2018-07-16T15:13:22.768Z,23.01
2018-07-16T15:15:50.433Z,22.97
2018-07-16T15:18:17.084Z,22.97
2018-07-16T15:20:43.836Z,22.95
2018-07-16T15:23:11.325Z,22.95
2018-07-16T15:25:37.972Z,22.95
2018-07-16T15:28:05.625Z,23.01
2018-07-16T15:30:32.285Z,23.00
2018-07-16T15:32:59.888Z,23.03
2018-07-16T15:35:26.551Z,22.94
2018-07-16T15:37:54.261Z,22.96
2018-07-16T15:40:20.892Z,22.96
2018-07-16T15:42:48.381Z,22.93
2018-07-16T15:45:16.845Z,22.93
2018-07-16T15:47:43.600Z,22.90
2018-07-16T15:50:10.263Z,22.92
2018-07-16T15:52:38.279Z,22.95
2018-07-16T15:55:04.956Z,22.93
2018-07-16T15:57:32.613Z,22.96
2018-07-16T15:59:59.257Z,22.92
2018-07-16T16:02:25.929Z,22.91
2018-07-16T16:04:52.575Z,22.90
2018-07-16T16:07:20.069Z,22.97
2018-07-16T16:09:48.065Z,22.91
2018-07-16T16:12:16.760Z,22.91
2018-07-16T16:14:43.396Z,22.90
2018-07-16T16:17:10.051Z,22.89
2018-07-16T16:19:37.823Z,22.87
2018-07-16T16:22:05.521Z,22.85
2018-07-16T16:24:32.185Z,22.86
2018-07-16T16:26:59.054Z,22.88
2018-07-16T16:29:25.699Z,22.97
2018-07-16T16:31:53.744Z,22.95
2018-07-16T16:34:20.412Z,22.99
2018-07-16T16:36:47.990Z,22.94
2018-07-16T16:39:14.781Z,22.95
2018-07-16T16:41:41.434Z,22.92
2018-07-16T16:44:08.124Z,22.88
2018-07-16T16:46:34.813Z,22.91
2018-07-16T16:49:01.543Z,22.89
2018-07-16T16:51:28.168Z,22.89
2018-07-16T16:53:54.809Z,22.86
2018-07-16T16:56:21.455Z,22.85
2018-07-16T16:58:48.142Z,22.86
2018-07-16T17:01:14.800Z,22.83
2018-07-16T17:03:42.401Z,22.86
2018-07-16T17:06:09.037Z,22.87
2018-07-16T17:08:35.693Z,22.87
2018-07-16T17:11:02.470Z,22.96
2018-07-16T17:13:29.129Z,23.08
2018-07-16T17:15:55.781Z,23.19
2018-07-16T17:18:22.542Z,23.30
2018-07-16T17:20:49.276Z,23.36
2018-07-16T17:23:16.922Z,23.36
2018-07-16T17:25:44.035Z,23.37
2018-07-16T17:28:10.710Z,23.38
2018-07-16T17:30:37.416Z,23.37
2018-07-16T17:33:04.243Z,23.37
2018-07-16T17:35:31.036Z,23.38
2018-07-16T17:37:57.701Z,23.40
2018-07-16T17:40:25.433Z,23.38
2018-07-16T17:42:52.127Z,23.36
2018-07-16T17:45:19.861Z,23.35
2018-07-16T17:47:47.553Z,23.32
2018-07-16T17:50:14.188Z,23.32
2018-07-16T17:52:40.841Z,23.35
2018-07-16T17:55:08.808Z,23.33
2018-07-16T17:57:35.449Z,23.33
2018-07-16T18:00:03.018Z,23.36
2018-07-16T18:02:30.701Z,23.34
2018-07-16T18:04:58.328Z,23.33
2018-07-16T18:07:25.913Z,23.32
2018-07-16T18:09:53.373Z,23.31
2018-07-16T18:12:20.172Z,23.28
2018-07-16T18:14:47.307Z,23.27
2018-07-16T18:17:13.953Z,23.29
2018-07-16T18:19:40.589Z,23.28
2018-07-16T18:22:08.184Z,23.28
2018-07-16T18:24:34.841Z,23.28
2018-07-16T18:27:02.405Z,23.27
2018-07-16T18:29:29.068Z,23.26
2018-07-16T18:31:55.716Z,23.25
2018-07-16T18:34:22.356Z,23.24
2018-07-16T18:36:49.005Z,23.25
2018-07-16T18:39:16.430Z,23.26
2018-07-16T18:41:43.093Z,23.23
2018-07-16T18:44:09.801Z,23.25
2018-07-16T18:46:36.488Z,23.23
2018-07-16T18:49:03.144Z,23.23
2018-07-16T18:51:29.780Z,23.21
2018-07-16T18:53:56.448Z,23.19
2018-07-16T18:56:23.089Z,23.19
2018-07-16T18:58:49.728Z,23.18
2018-07-16T19:01:17.009Z,23.39
2018-07-16T19:03:43.653Z,23.29
2018-07-16T19:06:10.424Z,23.23
2018-07-16T19:08:38.004Z,23.16
2018-07-16T19:11:04.699Z,23.21
2018-07-16T19:13:31.352Z,23.19
2018-07-16T19:15:57.999Z,23.20
2018-07-16T19:18:24.638Z,23.10
2018-07-16T19:20:51.305Z,23.08
2018-07-16T19:23:17.956Z,23.15
2018-07-16T19:25:44.613Z,23.10
2018-07-16T19:28:11.249Z,23.12
2018-07-16T19:30:38.345Z,23.14
2018-07-16T19:33:04.980Z,23.13
2018-07-16T19:35:31.751Z,23.13
2018-07-16T19:37:58.424Z,23.11
2018-07-16T19:40:25.074Z,23.15
2018-07-16T19:42:51.740Z,23.06
2018-07-16T19:45:18.495Z,23.12
2018-07-16T19:47:46.857Z,23.11
2018-07-16T19:50:13.572Z,23.10
2018-07-16T19:52:41.233Z,23.10
2018-07-16T19:55:08.730Z,23.10
2018-07-16T19:57:35.691Z,23.10
2018-07-16T20:00:02.389Z,23.11
2018-07-16T20:02:29.080Z,23.11
2018-07-16T20:04:56.683Z,23.10
2018-07-16T20:07:23.426Z,23.09
2018-07-16T20:09:51.005Z,23.07
2018-07-16T20:12:23.443Z,23.09
2018-07-16T20:14:50.093Z,23.00
2018-07-16T20:17:17.629Z,23.03
2018-07-16T20:19:44.280Z,23.01
2018-07-16T20:22:10.957Z,23.03
2018-07-16T20:24:39.025Z,23.04
2018-07-16T20:27:05.714Z,23.02
2018-07-16T20:29:32.396Z,23.00
2018-07-16T20:31:59.096Z,23.00
2018-07-16T20:34:32.909Z,23.01
2018-07-16T20:36:59.620Z,22.96
2018-07-16T20:39:26.291Z,23.00
2018-07-16T20:41:52.987Z,23.02
2018-07-16T20:44:19.800Z,23.04
2018-07-16T20:46:47.613Z,23.04
2018-07-16T20:49:16.167Z,23.03
2018-07-16T20:51:43.905Z,23.00
2018-07-16T20:54:10.572Z,23.01
2018-07-16T20:56:38.222Z,23.01
2018-07-16T20:59:05.681Z,22.99
2018-07-16T21:01:32.450Z,23.00
2018-07-16T21:03:59.109Z,23.01
2018-07-16T21:06:25.786Z,23.00
2018-07-16T21:08:52.462Z,23.01
2018-07-16T21:11:19.132Z,23.00
2018-07-16T21:13:46.880Z,22.99
2018-07-16T21:16:16.600Z,22.98
2018-07-16T21:18:44.077Z,22.97
2018-07-16T21:21:11.737Z,22.95
2018-07-16T21:23:39.232Z,22.96
2018-07-16T21:26:07.726Z,22.96
2018-07-16T21:28:34.417Z,22.96
2018-07-16T21:31:01.922Z,22.96
2018-07-16T21:33:29.500Z,22.94
2018-07-16T21:35:56.790Z,22.93
2018-07-16T21:38:26.184Z,22.95
2018-07-16T21:40:53.025Z,22.95
2018-07-16T21:43:19.818Z,22.93
2018-07-16T21:45:48.308Z,22.94
2018-07-16T21:48:16.612Z,22.95
2018-07-16T21:50:44.060Z,22.95
2018-07-16T21:53:10.704Z,22.94
2018-07-16T21:55:38.536Z,22.96
2018-07-16T21:58:07.118Z,22.94
2018-07-16T22:00:33.788Z,22.92
2018-07-16T22:03:01.453Z,22.93
2018-07-16T22:05:28.532Z,22.93
2018-07-16T22:07:55.529Z,22.92
2018-07-16T22:10:22.554Z,22.93
2018-07-16T22:12:49.199Z,22.94
2018-07-16T22:15:20.403Z,22.93
2018-07-16T22:17:47.068Z,22.93
2018-07-16T22:20:14.591Z,22.97
2018-07-16T22:22:41.245Z,23.02
2018-07-16T22:25:10.126Z,23.15
2018-07-16T22:27:38.536Z,23.24
2018-07-16T22:30:07.001Z,23.33
2018-07-16T22:32:33.719Z,23.39
2018-07-16T22:35:00.449Z,23.42
2018-07-16T22:37:28.040Z,23.46
2018-07-16T22:39:54.712Z,23.45
2018-07-16T22:42:22.332Z,23.46
2018-07-16T22:44:48.961Z,23.41
2018-07-16T22:47:16.504Z,23.42
2018-07-16T22:49:43.156Z,23.40
2018-07-16T22:52:09.801Z,23.41
2018-07-16T22:54:36.588Z,23.42
2018-07-16T22:57:03.244Z,23.42
2018-07-16T22:59:29.891Z,23.40
2018-07-16T23:01:56.560Z,23.41
2018-07-16T23:04:23.204Z,23.41
2018-07-16T23:06:49.871Z,23.41
2018-07-16T23:09:17.136Z,23.37
2018-07-16T23:11:43.772Z,23.38
2018-07-16T23:14:10.567Z,23.39
2018-07-16T23:16:38.629Z,23.40
2018-07-16T23:19:05.269Z,23.37
2018-07-16T23:21:31.940Z,23.36
2018-07-16T23:23:58.592Z,23.33
2018-07-16T23:26:25.242Z,23.34
2018-07-16T23:28:52.002Z,23.35
2018-07-16T23:31:18.563Z,23.31
2018-07-16T23:33:47.363Z,23.33
2018-07-16T23:36:15.635Z,23.32
2018-07-16T23:38:42.308Z,23.33
2018-07-16T23:41:08.944Z,23.31
2018-07-16T23:43:36.631Z,23.30
2018-07-16T23:46:03.270Z,23.27
2018-07-16T23:48:29.929Z,23.28
2018-07-16T23:50:56.569Z,23.28
2018-07-16T23:53:23.225Z,23.27
2018-07-16T23:55:49.946Z,23.29
2018-07-16T23:58:17.537Z,23.29
